createdAt,value
2018-12-26T00:01:33.357Z,22.85
2018-12-26T00:04:36.836Z,22.87
2018-12-26T00:07:41.289Z,22.87
2018-12-26T00:10:44.787Z,22.86
2018-12-26T00:13:48.333Z,22.86
2018-12-26T00:16:52.816Z,22.85
2018-12-26T00:19:56.391Z,22.84
2018-12-26T00:23:00.033Z,22.86
2018-12-26T00:26:03.511Z,22.85
2018-12-26T00:29:06.960Z,22.85
2018-12-26T00:32:10.462Z,22.85
2018-12-26T00:35:13.953Z,22.84
2018-12-26T00:38:17.423Z,22.83
2018-12-26T00:41:20.928Z,22.82
2018-12-26T00:44:25.664Z,22.83
2018-12-26T00:47:29.299Z,22.83
2018-12-26T00:50:32.750Z,22.82
2018-12-26T00:53:36.270Z,22.82
2018-12-26T00:56:39.950Z,22.81
2018-12-26T00:59:44.477Z,22.82
2018-12-26T01:02:48.153Z,22.82
2018-12-26T01:05:51.602Z,22.81
2018-12-26T01:08:56.210Z,22.82
2018-12-26T01:11:59.709Z,22.81
2018-12-26T01:15:04.350Z,22.80
2018-12-26T01:18:07.953Z,22.78
2018-12-26T01:21:11.467Z,22.79
2018-12-26T01:24:14.942Z,22.78
2018-12-26T01:27:18.610Z,22.79
2018-12-26T01:30:22.161Z,22.79
2018-12-26T01:33:25.648Z,22.77
2018-12-26T01:36:29.171Z,22.78
2018-12-26T01:39:32.670Z,22.78
2018-12-26T01:42:36.158Z,22.78
2018-12-26T01:45:39.658Z,22.77
2018-12-26T01:48:43.122Z,22.77
2018-12-26T01:51:46.656Z,22.76
2018-12-26T01:54:50.126Z,22.77
2018-12-26T01:57:53.685Z,22.74
2018-12-26T02:00:59.224Z,22.76
2018-12-26T02:04:02.708Z,22.76
2018-12-26T02:07:06.219Z,22.76
2018-12-26T02:10:09.725Z,22.76
2018-12-26T02:13:13.224Z,22.74
2018-12-26T02:16:18.755Z,22.74
2018-12-26T02:19:23.301Z,22.74
2018-12-26T02:22:27.823Z,22.72
2018-12-26T02:25:31.310Z,22.74
2018-12-26T02:28:34.983Z,22.74
2018-12-26T02:31:38.411Z,22.74
2018-12-26T02:34:42.069Z,22.73
2018-12-26T02:37:45.535Z,22.73
2018-12-26T02:40:49.019Z,22.74
2018-12-26T02:43:52.540Z,22.74
2018-12-26T02:46:56.019Z,22.73
2018-12-26T02:50:00.558Z,22.72
2018-12-26T02:53:05.092Z,22.73
2018-12-26T02:56:08.610Z,22.73
2018-12-26T02:59:12.093Z,22.73
2018-12-26T03:02:15.580Z,22.72
2018-12-26T03:05:19.085Z,22.73
2018-12-26T03:08:22.599Z,22.73
2018-12-26T03:11:26.084Z,22.73
2018-12-26T03:14:29.611Z,22.71
2018-12-26T03:17:34.465Z,22.72
2018-12-26T03:20:38.029Z,22.71
2018-12-26T03:23:41.535Z,22.71
2018-12-26T03:26:45.014Z,22.70
2018-12-26T03:29:49.551Z,22.71
2018-12-26T03:32:55.086Z,22.72
2018-12-26T03:35:59.618Z,22.72
2018-12-26T03:39:04.195Z,22.71
2018-12-26T03:42:07.866Z,22.69
2018-12-26T03:45:11.318Z,22.71
2018-12-26T03:48:14.864Z,22.71
2018-12-26T03:51:18.460Z,22.70
2018-12-26T03:54:21.950Z,22.71
2018-12-26T03:57:25.545Z,22.68
2018-12-26T04:00:29.102Z,22.68
2018-12-26T04:03:32.602Z,22.68
2018-12-26T04:06:36.043Z,22.70
2018-12-26T04:09:39.575Z,22.70
2018-12-26T04:12:43.051Z,22.68
2018-12-26T04:15:47.602Z,22.69
2018-12-26T04:18:52.120Z,22.68
2018-12-26T04:21:56.645Z,22.69
2018-12-26T04:25:00.158Z,22.68
2018-12-26T04:28:03.633Z,22.69
2018-12-26T04:31:07.137Z,22.68
2018-12-26T04:34:10.607Z,22.68
2018-12-26T04:37:15.173Z,22.67
2018-12-26T04:40:18.678Z,22.69
2018-12-26T04:43:22.176Z,22.67
2018-12-26T04:46:25.673Z,22.67
2018-12-26T04:49:29.198Z,22.69
2018-12-26T04:52:32.679Z,22.68
2018-12-26T04:55:38.221Z,22.69
2018-12-26T04:58:41.712Z,22.68
2018-12-26T05:01:45.160Z,22.67
2018-12-26T05:04:48.640Z,22.67
2018-12-26T05:07:52.151Z,22.67
2018-12-26T05:10:55.618Z,22.66
2018-12-26T05:13:59.113Z,22.66
2018-12-26T05:17:02.619Z,22.67
2018-12-26T05:20:06.622Z,22.66
2018-12-26T05:23:10.123Z,22.67
2018-12-26T05:26:13.630Z,22.66
2018-12-26T05:29:17.137Z,22.67
2018-12-26T05:32:22.701Z,22.67
2018-12-26T05:35:28.230Z,22.66
2018-12-26T05:38:31.718Z,22.66
2018-12-26T05:41:35.330Z,22.66
2018-12-26T05:44:38.934Z,22.65
2018-12-26T05:47:43.468Z,22.65
2018-12-26T05:50:47.111Z,22.63
2018-12-26T05:53:50.622Z,22.65
2018-12-26T05:56:54.080Z,22.65
2018-12-26T05:59:57.577Z,22.65
2018-12-26T06:03:01.089Z,22.64
2018-12-26T06:06:04.566Z,22.65
2018-12-26T06:09:09.089Z,22.66
2018-12-26T06:12:12.590Z,22.66
2018-12-26T06:15:16.209Z,22.65
2018-12-26T06:18:21.740Z,22.64
2018-12-26T06:21:25.273Z,22.64
2018-12-26T06:24:28.728Z,22.65
2018-12-26T06:27:32.191Z,22.63
2018-12-26T06:30:35.774Z,22.64
2018-12-26T06:33:39.238Z,22.65
2018-12-26T06:36:42.763Z,22.64
2018-12-26T06:39:46.250Z,22.64
2018-12-26T06:42:50.780Z,22.64
2018-12-26T06:45:55.319Z,22.64
2018-12-26T06:48:58.798Z,22.63
2018-12-26T06:52:02.305Z,22.63
2018-12-26T06:55:05.857Z,22.64
2018-12-26T06:58:09.446Z,22.65
2018-12-26T07:01:12.917Z,22.64
2018-12-26T07:04:16.419Z,22.64
2018-12-26T07:07:19.935Z,22.65
2018-12-26T07:10:23.429Z,22.65
2018-12-26T07:13:27.077Z,22.65
2018-12-26T07:16:30.546Z,22.65
2018-12-26T07:19:34.044Z,22.67
2018-12-26T07:22:37.625Z,22.65
2018-12-26T07:25:41.091Z,22.64
2018-12-26T07:28:44.770Z,22.63
2018-12-26T07:31:48.214Z,22.63
2018-12-26T07:34:51.721Z,22.64
2018-12-26T07:37:55.233Z,22.64
2018-12-26T07:40:58.735Z,22.64
2018-12-26T07:44:02.224Z,22.65
2018-12-26T07:47:05.788Z,22.64
2018-12-26T07:50:09.226Z,22.64
2018-12-26T07:53:12.728Z,22.64
2018-12-26T07:56:16.251Z,22.63
2018-12-26T07:59:21.781Z,22.63
2018-12-26T08:02:25.303Z,22.63
2018-12-26T08:05:28.752Z,22.62
2018-12-26T08:08:32.192Z,22.63
2018-12-26T08:11:35.688Z,22.63
2018-12-26T08:14:39.231Z,22.61
2018-12-26T08:17:42.780Z,22.61
2018-12-26T08:20:46.334Z,22.63
2018-12-26T08:23:50.044Z,22.63
2018-12-26T08:26:53.754Z,22.60
2018-12-26T08:29:57.208Z,22.62
2018-12-26T08:33:00.700Z,22.62
2018-12-26T08:36:05.226Z,22.62
2018-12-26T08:39:08.725Z,22.63
2018-12-26T08:42:12.184Z,22.62
2018-12-26T08:45:15.730Z,22.62
2018-12-26T08:48:20.285Z,22.62
2018-12-26T08:51:23.802Z,22.62
2018-12-26T08:54:27.448Z,22.63
2018-12-26T08:57:30.959Z,22.62
2018-12-26T09:00:34.409Z,22.62
2018-12-26T09:03:37.949Z,22.62
2018-12-26T09:06:41.406Z,22.61
2018-12-26T09:09:44.864Z,22.60
2018-12-26T09:12:48.383Z,22.62
2018-12-26T09:15:51.946Z,22.62
2018-12-26T09:18:55.474Z,22.60
2018-12-26T09:21:59.066Z,22.61
2018-12-26T09:25:03.711Z,22.62
2018-12-26T09:28:07.234Z,22.64
2018-12-26T09:31:10.691Z,22.61
2018-12-26T09:34:14.204Z,22.63
2018-12-26T09:37:19.770Z,22.63
2018-12-26T09:40:24.262Z,22.62
2018-12-26T09:43:27.786Z,22.63
2018-12-26T09:46:31.296Z,22.65
2018-12-26T09:49:34.771Z,22.65
2018-12-26T09:52:38.296Z,22.66
2018-12-26T09:55:41.769Z,22.68
2018-12-26T09:58:52.406Z,22.70
2018-12-26T10:01:51.638Z,22.71
2018-12-26T10:04:55.139Z,22.72
2018-12-26T10:07:58.696Z,22.74
2018-12-26T10:11:03.177Z,22.76
2018-12-26T10:14:06.684Z,22.77
2018-12-26T10:17:11.221Z,22.79
2018-12-26T10:20:14.702Z,22.80
2018-12-26T10:23:18.194Z,22.79
2018-12-26T10:26:21.708Z,22.82
2018-12-26T10:29:25.195Z,22.83
2018-12-26T10:32:28.721Z,22.84
2018-12-26T10:35:32.244Z,22.83
2018-12-26T10:38:35.718Z,22.85
2018-12-26T10:41:40.439Z,22.86
2018-12-26T10:44:43.929Z,22.87
2018-12-26T10:47:47.431Z,22.88
2018-12-26T10:50:50.931Z,22.91
2018-12-26T10:53:54.462Z,22.90
2018-12-26T10:56:59.168Z,22.90
2018-12-26T11:00:02.706Z,22.91
2018-12-26T11:03:06.177Z,22.92
2018-12-26T11:06:09.647Z,22.93
2018-12-26T11:09:13.188Z,22.93
2018-12-26T11:12:17.733Z,22.94
2018-12-26T11:15:21.200Z,22.95
2018-12-26T11:18:24.708Z,22.96
2018-12-26T11:21:28.219Z,22.96
2018-12-26T11:24:31.714Z,22.97
2018-12-26T11:27:35.334Z,22.98
2018-12-26T11:30:38.800Z,22.99
2018-12-26T11:33:42.314Z,23.00
2018-12-26T11:36:45.751Z,22.98
2018-12-26T11:39:49.491Z,23.00
2018-12-26T11:42:52.855Z,23.00
2018-12-26T11:45:56.410Z,22.99
2018-12-26T11:49:00.950Z,22.99
2018-12-26T11:52:04.432Z,22.98
2018-12-26T11:55:10.823Z,22.99
2018-12-26T11:58:14.308Z,22.99
2018-12-26T12:01:19.830Z,23.01
2018-12-26T12:04:23.290Z,23.00
2018-12-26T12:07:26.884Z,23.00
2018-12-26T12:10:30.320Z,23.02
2018-12-26T12:13:33.786Z,23.03
2018-12-26T12:16:37.242Z,23.02
2018-12-26T12:19:40.809Z,23.03
2018-12-26T12:22:44.540Z,23.04
2018-12-26T12:25:48.196Z,23.03
2018-12-26T12:28:51.672Z,23.04
2018-12-26T12:31:55.180Z,23.05
2018-12-26T12:34:58.671Z,23.04
2018-12-26T12:38:02.175Z,23.06
2018-12-26T12:41:05.700Z,23.05
2018-12-26T12:44:09.198Z,23.06
2018-12-26T12:47:12.679Z,23.06
2018-12-26T12:50:16.118Z,23.06
2018-12-26T12:53:19.583Z,23.06
2018-12-26T12:56:23.091Z,23.07
2018-12-26T12:59:26.571Z,23.08
2018-12-26T13:02:30.122Z,23.06
2018-12-26T13:05:33.693Z,23.08
2018-12-26T13:08:37.188Z,23.09
2018-12-26T13:11:40.638Z,23.10
2018-12-26T13:14:44.217Z,23.10
2018-12-26T13:17:47.808Z,23.11
2018-12-26T13:20:51.319Z,23.11
2018-12-26T13:23:56.867Z,23.10
2018-12-26T13:27:00.346Z,23.12
2018-12-26T13:30:07.796Z,23.13
2018-12-26T13:33:11.336Z,23.13
2018-12-26T13:36:14.786Z,23.13
2018-12-26T13:39:18.251Z,23.12
2018-12-26T13:42:21.713Z,23.14
2018-12-26T13:45:25.176Z,23.15
2018-12-26T13:48:28.642Z,23.15
2018-12-26T13:51:32.137Z,23.15
2018-12-26T13:54:35.765Z,23.15
2018-12-26T13:57:39.255Z,23.17
2018-12-26T14:00:44.785Z,23.17
2018-12-26T14:03:48.269Z,23.18
2018-12-26T14:06:51.747Z,23.19
2018-12-26T14:09:56.329Z,23.19
2018-12-26T14:12:59.831Z,23.20
2018-12-26T14:16:03.305Z,23.19
2018-12-26T14:19:06.848Z,23.20
2018-12-26T14:22:10.329Z,23.20
2018-12-26T14:25:13.837Z,23.20
2018-12-26T14:28:17.321Z,23.21
2018-12-26T14:31:22.902Z,23.22
2018-12-26T14:34:26.357Z,23.22
2018-12-26T14:37:29.890Z,23.22
2018-12-26T14:40:33.374Z,23.23
2018-12-26T14:43:36.874Z,23.22
2018-12-26T14:46:40.378Z,23.23
2018-12-26T14:49:44.982Z,23.22
2018-12-26T14:52:49.448Z,23.21
2018-12-26T14:55:52.922Z,23.22
2018-12-26T14:58:56.429Z,23.22
2018-12-26T15:01:59.945Z,23.22
2018-12-26T15:05:03.401Z,23.21
2018-12-26T15:08:08.024Z,23.23
2018-12-26T15:11:11.671Z,23.23
2018-12-26T15:14:16.175Z,23.22
2018-12-26T15:17:21.674Z,23.23
2018-12-26T15:20:25.054Z,23.23
2018-12-26T15:23:29.556Z,23.23
2018-12-26T15:26:33.089Z,23.25
2018-12-26T15:29:36.575Z,23.25
2018-12-26T15:32:40.060Z,23.26
2018-12-26T15:35:43.556Z,23.26
2018-12-26T15:38:48.081Z,23.27
2018-12-26T15:41:51.603Z,23.27
2018-12-26T15:44:55.131Z,23.29
2018-12-26T15:47:58.584Z,23.29
2018-12-26T15:51:02.124Z,23.29
2018-12-26T15:54:05.609Z,23.30
2018-12-26T15:57:09.169Z,23.29
2018-12-26T16:00:13.651Z,23.30
2018-12-26T16:03:17.131Z,23.29
2018-12-26T16:06:20.626Z,23.29
2018-12-26T16:09:24.131Z,23.29
2018-12-26T16:12:27.620Z,23.28
2018-12-26T16:15:31.150Z,23.27
2018-12-26T16:18:34.712Z,23.27
2018-12-26T16:21:38.360Z,23.27
2018-12-26T16:24:41.840Z,23.26
2018-12-26T16:27:45.355Z,23.27
2018-12-26T16:30:48.830Z,23.27
2018-12-26T16:33:52.333Z,23.27
2018-12-26T16:36:55.835Z,23.29
2018-12-26T16:39:59.345Z,23.28
2018-12-26T16:43:02.840Z,23.28
2018-12-26T16:46:06.342Z,23.31
2018-12-26T16:49:09.861Z,23.31
2018-12-26T16:52:13.395Z,23.32
2018-12-26T16:55:17.046Z,23.31
2018-12-26T16:58:20.656Z,23.32
2018-12-26T17:01:24.270Z,23.33
2018-12-26T17:04:27.770Z,23.32
2018-12-26T17:07:31.248Z,23.31
2018-12-26T17:10:35.009Z,23.30
2018-12-26T17:13:38.659Z,23.28
2018-12-26T17:16:42.280Z,23.25
2018-12-26T17:19:45.962Z,23.25
2018-12-26T17:22:49.694Z,23.25
2018-12-26T17:25:54.306Z,23.23
2018-12-26T17:28:57.803Z,23.21
2018-12-26T17:32:01.335Z,23.20
2018-12-26T17:35:04.864Z,23.22
2018-12-26T17:38:08.519Z,23.25
2018-12-26T17:41:12.138Z,23.25
2018-12-26T17:44:15.768Z,23.26
2018-12-26T17:47:19.279Z,23.28
2018-12-26T17:50:46.386Z,23.29
2018-12-26T17:54:09.734Z,23.30
2018-12-26T17:57:20.507Z,23.30
2018-12-26T18:00:40.935Z,23.31
2018-12-26T18:03:44.516Z,23.32
2018-12-26T18:06:48.021Z,23.32
2018-12-26T18:09:51.519Z,23.32
2018-12-26T18:12:55.028Z,23.33
2018-12-26T18:15:58.637Z,23.32
2018-12-26T18:19:02.276Z,23.31
2018-12-26T18:22:05.748Z,23.32
2018-12-26T18:25:09.243Z,23.32
2018-12-26T18:28:12.754Z,23.31
2018-12-26T18:31:21.954Z,23.33
2018-12-26T18:34:21.576Z,23.32
2018-12-26T18:37:26.123Z,23.33
2018-12-26T18:40:29.612Z,23.34
2018-12-26T18:43:35.160Z,23.34
2018-12-26T18:46:38.676Z,23.34
2018-12-26T18:49:42.169Z,23.34
2018-12-26T18:52:45.667Z,23.36
2018-12-26T18:55:49.165Z,23.37
2018-12-26T18:58:52.677Z,23.37
2018-12-26T19:01:56.220Z,23.36
2018-12-26T19:04:59.656Z,23.38
2018-12-26T19:08:03.164Z,23.40
2018-12-26T19:11:07.713Z,23.39
2018-12-26T19:14:11.198Z,23.39
2018-12-26T19:17:14.716Z,23.40
2018-12-26T19:20:18.325Z,23.39
2018-12-26T19:23:21.930Z,23.40
2018-12-26T19:26:25.417Z,23.39
2018-12-26T19:29:28.900Z,23.39
2018-12-26T19:32:32.415Z,23.39
2018-12-26T19:35:35.895Z,23.39
2018-12-26T19:38:39.436Z,23.39
2018-12-26T19:41:43.340Z,23.38
2018-12-26T19:44:47.038Z,23.39
2018-12-26T19:47:50.634Z,23.39
2018-12-26T19:50:54.334Z,23.39
2018-12-26T19:53:57.942Z,23.40
2018-12-26T19:57:01.471Z,23.39
2018-12-26T20:00:05.340Z,23.41
2018-12-26T20:03:09.989Z,23.40
2018-12-26T20:06:13.594Z,23.40
2018-12-26T20:09:18.116Z,23.41
2018-12-26T20:12:21.629Z,23.44
2018-12-26T20:15:25.085Z,23.42
2018-12-26T20:18:28.633Z,23.42
2018-12-26T20:21:32.127Z,23.43
2018-12-26T20:24:35.640Z,23.43
2018-12-26T20:27:39.127Z,23.43
2018-12-26T20:30:42.705Z,23.43
2018-12-26T20:33:46.331Z,23.43
2018-12-26T20:36:49.824Z,23.42
2018-12-26T20:39:53.345Z,23.42
2018-12-26T20:42:56.839Z,23.42
2018-12-26T20:46:01.352Z,23.42
2018-12-26T20:49:04.877Z,23.42
2018-12-26T20:52:08.347Z,23.42
2018-12-26T20:55:11.849Z,23.41
2018-12-26T20:58:15.359Z,23.42
2018-12-26T21:01:19.875Z,23.41
2018-12-26T21:04:23.386Z,23.41
2018-12-26T21:07:30.145Z,23.40
2018-12-26T21:10:33.754Z,23.41
2018-12-26T21:13:37.365Z,23.42
2018-12-26T21:16:40.879Z,23.41
2018-12-26T21:19:44.365Z,23.43
2018-12-26T21:22:47.885Z,23.43
2018-12-26T21:25:51.376Z,23.43
2018-12-26T21:28:54.895Z,23.44
2018-12-26T21:31:59.400Z,23.43
2018-12-26T21:35:02.880Z,23.46
2018-12-26T21:38:06.399Z,23.46
2018-12-26T21:41:09.924Z,23.46
2018-12-26T21:44:13.394Z,23.46
2018-12-26T21:47:17.006Z,23.46
2018-12-26T21:50:20.602Z,23.46
2018-12-26T21:53:24.113Z,23.38
2018-12-26T21:56:28.627Z,23.37
2018-12-26T21:59:32.132Z,23.33
2018-12-26T22:02:38.713Z,23.32
2018-12-26T22:05:44.256Z,23.30
2018-12-26T22:08:47.752Z,23.27
2018-12-26T22:11:51.192Z,23.29
2018-12-26T22:14:54.639Z,23.25
2018-12-26T22:17:58.270Z,23.25
2018-12-26T22:21:01.771Z,23.25
2018-12-26T22:24:06.209Z,23.25
2018-12-26T22:27:09.659Z,23.24
2018-12-26T22:30:13.288Z,23.25
2018-12-26T22:33:16.800Z,23.23
2018-12-26T22:36:20.282Z,23.23
2018-12-26T22:39:23.804Z,23.22
2018-12-26T22:42:27.319Z,23.22
2018-12-26T22:45:31.840Z,23.22
2018-12-26T22:48:35.329Z,23.20
2018-12-26T22:51:42.362Z,23.20
2018-12-26T22:54:45.803Z,23.19
2018-12-26T22:57:51.363Z,23.19
2018-12-26T23:00:55.428Z,23.19
2018-12-26T23:03:59.987Z,23.17
2018-12-26T23:07:04.537Z,23.16
2018-12-26T23:10:10.052Z,23.16
2018-12-26T23:13:14.600Z,23.14
2018-12-26T23:16:18.097Z,23.13
2018-12-26T23:19:21.608Z,23.14
2018-12-26T23:22:25.092Z,23.15
2018-12-26T23:25:28.614Z,23.13
2018-12-26T23:28:32.078Z,23.14
2018-12-26T23:31:36.638Z,23.12
2018-12-26T23:34:40.098Z,23.12
2018-12-26T23:37:43.612Z,23.11
2018-12-26T23:40:48.148Z,23.12
2018-12-26T23:43:53.698Z,23.13
2018-12-26T23:46:57.189Z,23.11
2018-12-26T23:50:02.855Z,23.11
2018-12-26T23:53:06.509Z,23.11
2018-12-26T23:56:10.156Z,23.12
2018-12-26T23:59:14.689Z,23.10
